createdAt,value
2022-10-26T00:00:06.300Z,9.38
2022-10-26T00:02:33.094Z,9.38
2022-10-26T00:04:59.521Z,9.35
2022-10-26T00:07:26.016Z,9.32
2022-10-26T00:09:52.383Z,9.30
2022-10-26T00:12:18.740Z,9.29
2022-10-26T00:14:45.110Z,9.30
2022-10-26T00:17:11.474Z,9.30
2022-10-26T00:19:38.229Z,9.31
2022-10-26T00:22:04.597Z,9.32
2022-10-26T00:24:30.973Z,9.31
2022-10-26T00:26:57.333Z,9.32
2022-10-26T00:29:23.728Z,9.30
2022-10-26T00:31:50.078Z,9.32
2022-10-26T00:34:16.451Z,9.34
2022-10-26T00:36:42.866Z,9.37
2022-10-26T00:39:12.355Z,9.38
2022-10-26T00:41:38.726Z,9.40
2022-10-26T00:44:23.686Z,9.41
2022-10-26T00:46:50.058Z,9.41
2022-10-26T00:51:52.360Z,9.38
2022-10-26T00:54:19.403Z,9.33
2022-10-26T00:56:46.885Z,9.24
2022-10-26T00:59:15.158Z,9.14
2022-10-26T01:01:43.261Z,9.11
2022-10-26T01:04:10.323Z,9.11
2022-10-26T01:06:37.303Z,9.09
2022-10-26T01:09:03.957Z,9.11
2022-10-26T01:11:30.393Z,9.11
2022-10-26T01:13:58.201Z,9.12
2022-10-26T01:16:38.442Z,9.11
2022-10-26T01:19:25.842Z,9.11
2022-10-26T01:22:27.970Z,9.14
2022-10-26T01:25:03.237Z,9.14
2022-10-26T01:27:32.293Z,9.11
2022-10-26T01:29:58.656Z,9.09
2022-10-26T01:32:39.964Z,9.07
2022-10-26T01:35:06.344Z,9.07
2022-10-26T01:37:35.662Z,9.06
2022-10-26T01:40:09.416Z,9.06
2022-10-26T01:42:38.957Z,9.03
2022-10-26T01:45:07.946Z,9.03
2022-10-26T01:47:36.351Z,9.01
2022-10-26T01:50:04.084Z,8.99
2022-10-26T01:52:30.510Z,8.98
2022-10-26T01:55:00.872Z,8.95
2022-10-26T01:57:27.628Z,8.91
2022-10-26T02:00:08.089Z,8.88
2022-10-26T02:02:58.253Z,8.86
2022-10-26T02:05:39.396Z,8.83
2022-10-26T02:08:05.744Z,8.79
2022-10-26T02:10:35.122Z,8.77
2022-10-26T02:13:01.581Z,8.75
2022-10-26T02:15:38.375Z,8.71
2022-10-26T02:18:10.580Z,8.68
2022-10-26T02:20:41.478Z,8.64
2022-10-26T02:23:08.143Z,8.62
2022-10-26T02:25:37.449Z,8.63
2022-10-26T02:28:07.520Z,8.63
2022-10-26T02:30:35.457Z,8.62
2022-10-26T02:33:03.995Z,8.57
2022-10-26T02:35:31.868Z,8.55
2022-10-26T02:38:00.882Z,8.53
2022-10-26T02:40:28.244Z,8.51
2022-10-26T02:42:56.516Z,8.47
2022-10-26T02:45:25.994Z,8.44
2022-10-26T02:47:53.538Z,8.44
2022-10-26T02:50:22.030Z,8.44
2022-10-26T02:52:48.651Z,8.45
2022-10-26T02:55:18.559Z,8.45
2022-10-26T02:57:47.476Z,8.44
2022-10-26T03:00:15.287Z,8.42
2022-10-26T03:02:48.509Z,8.40
2022-10-26T03:05:23.474Z,8.35
2022-10-26T03:07:49.949Z,8.33
2022-10-26T03:10:16.354Z,8.30
2022-10-26T03:12:42.713Z,8.22
2022-10-26T03:15:09.307Z,8.23
2022-10-26T03:17:35.700Z,8.26
2022-10-26T03:20:02.137Z,8.27
2022-10-26T03:22:28.508Z,8.25
2022-10-26T03:24:55.009Z,8.24
2022-10-26T03:27:21.467Z,8.23
2022-10-26T03:29:47.946Z,8.23
2022-10-26T03:32:14.306Z,8.25
2022-10-26T03:34:40.688Z,8.29
2022-10-26T03:37:07.047Z,8.31
2022-10-26T03:39:33.414Z,8.29
2022-10-26T03:41:59.813Z,8.30
2022-10-26T03:44:26.189Z,8.30
2022-10-26T03:46:52.545Z,8.25
2022-10-26T03:49:18.911Z,8.23
2022-10-26T03:51:45.272Z,8.17
2022-10-26T03:54:11.728Z,8.15
2022-10-26T03:56:38.140Z,8.18
2022-10-26T03:59:04.623Z,8.22
2022-10-26T04:01:31.112Z,8.23
2022-10-26T04:03:57.624Z,8.23
2022-10-26T04:06:24.026Z,8.22
2022-10-26T04:08:51.774Z,8.22
2022-10-26T04:11:18.149Z,8.22
2022-10-26T04:13:44.514Z,8.26
2022-10-26T04:16:10.871Z,8.28
2022-10-26T04:18:37.252Z,8.29
2022-10-26T04:21:03.764Z,8.29
2022-10-26T04:23:30.144Z,8.27
2022-10-26T04:25:56.522Z,8.23
2022-10-26T04:28:22.901Z,8.25
2022-10-26T04:30:49.285Z,8.28
2022-10-26T04:33:15.641Z,8.28
2022-10-26T04:35:42.994Z,8.27
2022-10-26T04:38:10.422Z,8.29
2022-10-26T04:40:36.868Z,8.23
2022-10-26T04:43:03.329Z,8.23
2022-10-26T04:45:31.161Z,8.24
2022-10-26T04:48:00.599Z,8.25
2022-10-26T04:50:28.475Z,8.27
2022-10-26T04:52:55.047Z,8.22
2022-10-26T04:55:21.450Z,8.22
2022-10-26T04:57:48.056Z,8.26
2022-10-26T05:00:14.978Z,8.27
2022-10-26T05:02:41.363Z,8.27
2022-10-26T05:05:10.028Z,8.27
2022-10-26T05:07:39.100Z,8.26
2022-10-26T05:10:05.697Z,8.27
2022-10-26T05:12:32.086Z,8.30
2022-10-26T05:14:59.184Z,8.30
2022-10-26T05:17:26.154Z,8.31
2022-10-26T05:19:55.516Z,8.29
2022-10-26T05:22:22.343Z,8.28
2022-10-26T05:24:48.729Z,8.27
2022-10-26T05:27:15.085Z,8.29
2022-10-26T05:29:41.598Z,8.30
2022-10-26T05:32:07.971Z,8.31
2022-10-26T05:34:37.206Z,8.31
2022-10-26T05:37:05.930Z,8.19
2022-10-26T05:39:32.309Z,8.14
2022-10-26T05:41:58.662Z,8.14
2022-10-26T05:44:25.129Z,8.18
2022-10-26T05:46:51.536Z,8.24
2022-10-26T05:49:17.972Z,8.24
2022-10-26T05:51:44.384Z,8.23
2022-10-26T05:54:13.751Z,8.23
2022-10-26T05:56:41.196Z,8.24
2022-10-26T05:59:12.054Z,8.24
2022-10-26T06:01:44.640Z,8.23
2022-10-26T06:04:29.263Z,8.25
2022-10-26T06:06:56.434Z,8.23
2022-10-26T06:09:23.338Z,8.21
2022-10-26T06:14:21.470Z,8.19
2022-10-26T06:17:06.728Z,8.22
2022-10-26T06:19:46.732Z,8.25
2022-10-26T06:22:13.085Z,8.22
2022-10-26T06:24:42.740Z,8.23
2022-10-26T06:27:15.757Z,8.27
2022-10-26T06:29:50.534Z,8.25
2022-10-26T06:32:17.554Z,8.21
2022-10-26T06:34:46.502Z,8.13
2022-10-26T06:37:13.327Z,8.11
2022-10-26T06:39:42.510Z,8.03
2022-10-26T06:42:10.282Z,7.98
2022-10-26T06:44:36.955Z,7.98
2022-10-26T06:47:07.432Z,7.97
2022-10-26T06:49:33.762Z,7.88
2022-10-26T06:52:02.738Z,7.84
2022-10-26T06:54:49.699Z,7.76
2022-10-26T06:57:17.058Z,7.74
2022-10-26T06:59:46.968Z,7.76
2022-10-26T07:02:14.900Z,7.82
2022-10-26T07:04:41.946Z,7.91
2022-10-26T07:07:14.261Z,7.99
2022-10-26T07:09:40.618Z,8.02
2022-10-26T07:12:07.068Z,8.06
2022-10-26T07:14:33.506Z,8.08
2022-10-26T07:16:59.986Z,7.97
2022-10-26T07:19:26.358Z,7.92
2022-10-26T07:21:54.360Z,7.88
2022-10-26T07:24:20.719Z,7.91
2022-10-26T07:26:47.124Z,7.86
2022-10-26T07:29:14.052Z,7.79
2022-10-26T07:31:40.496Z,7.82
2022-10-26T07:34:06.883Z,7.87
2022-10-26T07:36:33.866Z,7.84
2022-10-26T07:39:00.273Z,7.74
2022-10-26T07:41:26.630Z,7.72
2022-10-26T07:43:53.088Z,7.75
2022-10-26T07:46:19.503Z,7.78
2022-10-26T07:48:45.882Z,7.80
2022-10-26T07:51:12.350Z,7.83
2022-10-26T07:53:38.801Z,7.80
2022-10-26T07:56:05.444Z,7.83
2022-10-26T07:58:31.804Z,7.93
2022-10-26T08:00:58.192Z,8.02
2022-10-26T08:03:24.614Z,8.03
2022-10-26T08:05:53.864Z,8.12
2022-10-26T08:08:20.241Z,8.20
2022-10-26T08:10:47.113Z,8.27
2022-10-26T08:13:13.854Z,8.35
2022-10-26T08:15:40.799Z,8.41
2022-10-26T08:18:07.440Z,8.46
2022-10-26T08:20:33.867Z,8.55
2022-10-26T08:23:01.299Z,8.60
2022-10-26T08:25:27.704Z,8.65
2022-10-26T08:27:54.389Z,8.69
2022-10-26T08:30:20.963Z,8.71
2022-10-26T08:32:47.625Z,8.75
2022-10-26T08:35:14.599Z,8.79
2022-10-26T08:37:40.973Z,8.81
2022-10-26T08:40:07.657Z,8.83
2022-10-26T08:42:38.014Z,8.86
2022-10-26T08:45:10.208Z,8.88
2022-10-26T08:47:43.169Z,8.90
2022-10-26T08:50:13.337Z,8.93
2022-10-26T08:53:03.699Z,8.99
2022-10-26T08:55:37.859Z,9.01
2022-10-26T08:58:06.536Z,9.05
2022-10-26T09:00:34.731Z,9.07
2022-10-26T09:03:01.113Z,9.09
2022-10-26T09:05:34.776Z,9.12
2022-10-26T09:08:12.784Z,9.16
2022-10-26T09:10:45.264Z,9.20
2022-10-26T09:13:11.622Z,9.23
2022-10-26T09:15:41.068Z,9.26
2022-10-26T09:18:26.348Z,9.29
2022-10-26T09:21:05.938Z,9.31
2022-10-26T09:23:38.479Z,9.36
2022-10-26T09:26:06.413Z,9.43
2022-10-26T09:28:35.227Z,9.49
2022-10-26T09:31:03.885Z,9.54
2022-10-26T09:33:32.485Z,9.62
2022-10-26T09:36:01.204Z,9.69
2022-10-26T09:38:46.180Z,9.74
2022-10-26T09:41:22.196Z,9.82
2022-10-26T09:43:50.224Z,9.87
2022-10-26T09:46:22.460Z,9.93
2022-10-26T09:48:51.037Z,10.02
2022-10-26T09:51:18.142Z,10.11
2022-10-26T09:53:44.590Z,10.20
2022-10-26T09:56:12.481Z,10.32
2022-10-26T09:58:48.436Z,10.41
2022-10-26T10:01:42.443Z,10.55
2022-10-26T10:04:17.383Z,10.70
2022-10-26T10:06:44.878Z,10.83
2022-10-26T10:09:15.480Z,10.95
2022-10-26T10:11:58.000Z,11.07
2022-10-26T10:14:24.425Z,11.21
2022-10-26T10:17:11.165Z,11.33
2022-10-26T10:19:38.297Z,11.49
2022-10-26T10:22:10.843Z,11.59
2022-10-26T10:24:38.150Z,11.72
2022-10-26T10:27:06.023Z,11.85
2022-10-26T10:29:34.028Z,11.96
2022-10-26T10:32:01.867Z,12.17
2022-10-26T10:34:31.831Z,12.34
2022-10-26T10:36:59.393Z,12.50
2022-10-26T10:41:57.217Z,12.78
2022-10-26T10:44:31.494Z,13.13
2022-10-26T10:47:01.686Z,13.48
2022-10-26T10:49:29.223Z,13.65
2022-10-26T10:51:56.010Z,13.80
2022-10-26T10:54:31.475Z,13.87
2022-10-26T10:57:06.194Z,14.20
2022-10-26T10:59:44.705Z,14.45
2022-10-26T11:02:29.938Z,14.52
2022-10-26T11:05:02.192Z,14.60
2022-10-26T11:07:30.470Z,14.73
2022-10-26T11:09:57.283Z,14.78
2022-10-26T11:12:28.117Z,14.91
2022-10-26T11:15:00.492Z,15.04
2022-10-26T11:17:30.921Z,15.08
2022-10-26T11:20:02.830Z,15.14
2022-10-26T11:22:33.065Z,15.22
2022-10-26T11:24:59.439Z,15.35
2022-10-26T11:27:29.262Z,15.42
2022-10-26T11:29:55.601Z,15.48
2022-10-26T11:32:23.851Z,15.54
2022-10-26T11:34:50.203Z,15.65
2022-10-26T11:37:28.724Z,15.69
2022-10-26T11:40:00.946Z,15.73
2022-10-26T11:42:41.265Z,15.82
2022-10-26T11:45:17.850Z,15.85
2022-10-26T11:47:48.983Z,15.83
2022-10-26T11:50:35.884Z,15.89
2022-10-26T11:53:05.275Z,16.04
2022-10-26T11:55:31.751Z,16.11
2022-10-26T11:57:58.694Z,16.19
2022-10-26T12:00:26.334Z,16.30
2022-10-26T12:02:55.704Z,16.41
2022-10-26T12:05:23.740Z,16.51
2022-10-26T12:07:52.655Z,16.57
2022-10-26T12:10:25.040Z,16.56
2022-10-26T12:12:54.434Z,16.63
2022-10-26T12:15:30.815Z,16.69
2022-10-26T12:18:10.288Z,16.78
2022-10-26T12:20:51.681Z,16.83
2022-10-26T12:23:28.113Z,16.92
2022-10-26T12:26:23.225Z,16.98
2022-10-26T12:29:09.875Z,17.00
2022-10-26T12:31:36.248Z,16.92
2022-10-26T12:34:22.220Z,16.87
2022-10-26T12:36:49.374Z,16.86
2022-10-26T12:39:32.664Z,16.85
2022-10-26T12:42:05.194Z,16.84
2022-10-26T12:44:33.774Z,16.82
2022-10-26T12:47:00.184Z,16.76
2022-10-26T12:49:45.696Z,16.71
2022-10-26T12:52:19.867Z,16.66
2022-10-26T12:54:55.883Z,16.61
2022-10-26T12:57:37.709Z,16.51
2022-10-26T13:00:05.950Z,16.48
2022-10-26T13:02:35.397Z,16.45
2022-10-26T13:05:24.946Z,16.36
2022-10-26T13:07:51.554Z,16.14
2022-10-26T13:10:22.935Z,15.96
2022-10-26T13:12:53.845Z,15.85
2022-10-26T13:15:20.333Z,15.66
2022-10-26T13:17:55.414Z,15.50
2022-10-26T13:20:21.798Z,15.37
2022-10-26T13:22:48.967Z,15.33
2022-10-26T13:25:26.341Z,15.27
2022-10-26T13:28:16.282Z,15.16
2022-10-26T13:30:44.559Z,14.86
2022-10-26T13:33:20.615Z,14.50
2022-10-26T13:35:47.253Z,14.31
2022-10-26T13:38:18.965Z,14.23
2022-10-26T13:40:45.742Z,14.28
2022-10-26T13:43:16.024Z,14.37
2022-10-26T13:46:01.267Z,14.44
2022-10-26T13:48:30.627Z,14.23
2022-10-26T13:50:59.456Z,14.11
2022-10-26T13:53:31.670Z,14.08
2022-10-26T13:56:06.519Z,14.00
2022-10-26T13:58:48.678Z,13.97
2022-10-26T14:01:21.560Z,13.62
2022-10-26T14:03:51.019Z,13.37
2022-10-26T14:06:17.423Z,13.25
2022-10-26T14:08:46.337Z,13.11
2022-10-26T14:11:18.154Z,13.12
2022-10-26T14:13:45.928Z,13.19
2022-10-26T14:16:17.421Z,13.11
2022-10-26T14:18:45.024Z,12.95
2022-10-26T14:21:16.224Z,12.89
2022-10-26T14:23:51.793Z,12.83
2022-10-26T14:26:28.584Z,12.66
2022-10-26T14:28:56.956Z,12.63
2022-10-26T14:31:28.281Z,12.54
2022-10-26T14:33:55.382Z,12.58
2022-10-26T14:36:25.310Z,12.54
2022-10-26T14:38:54.344Z,12.42
2022-10-26T14:41:21.863Z,12.28
2022-10-26T14:43:48.426Z,12.24
2022-10-26T14:46:16.367Z,12.18
2022-10-26T14:48:51.296Z,12.26
2022-10-26T14:51:18.828Z,12.23
2022-10-26T14:53:52.476Z,12.31
2022-10-26T14:56:24.832Z,12.36
2022-10-26T14:58:51.861Z,12.40
2022-10-26T15:01:32.065Z,12.36
2022-10-26T15:04:07.530Z,12.34
2022-10-26T15:06:41.807Z,12.39
2022-10-26T15:09:28.236Z,12.42
2022-10-26T15:11:54.660Z,12.32
2022-10-26T15:14:21.058Z,12.33
2022-10-26T15:16:55.322Z,12.31
2022-10-26T15:19:23.927Z,12.26
2022-10-26T15:21:51.419Z,12.29
2022-10-26T15:24:25.418Z,12.27
2022-10-26T15:26:52.286Z,12.26
2022-10-26T15:29:35.007Z,12.26
2022-10-26T15:32:01.850Z,12.17
2022-10-26T15:34:28.354Z,12.17
2022-10-26T15:36:54.889Z,12.14
2022-10-26T15:39:22.472Z,12.11
2022-10-26T15:41:49.445Z,12.10
2022-10-26T15:44:20.632Z,12.12
2022-10-26T15:46:47.186Z,12.05
2022-10-26T15:49:18.118Z,12.00
2022-10-26T15:51:45.585Z,11.87
2022-10-26T15:54:13.130Z,11.90
2022-10-26T15:56:39.825Z,11.84
2022-10-26T15:59:13.735Z,11.79
2022-10-26T16:01:40.151Z,11.74
2022-10-26T16:04:06.614Z,11.72
2022-10-26T16:06:34.999Z,11.72
2022-10-26T16:09:03.071Z,11.72
2022-10-26T16:11:29.931Z,11.78
2022-10-26T16:13:58.373Z,11.75
2022-10-26T16:16:28.128Z,11.76
2022-10-26T16:19:11.947Z,11.74
2022-10-26T16:21:42.101Z,11.74
2022-10-26T16:24:09.704Z,11.63
2022-10-26T16:26:36.116Z,11.58
2022-10-26T16:29:02.517Z,11.49
2022-10-26T16:31:28.896Z,11.47
2022-10-26T16:33:57.148Z,11.42
2022-10-26T16:36:25.358Z,11.51
2022-10-26T16:38:51.779Z,11.55
2022-10-26T16:41:18.287Z,11.54
2022-10-26T16:43:45.057Z,11.52
2022-10-26T16:46:18.802Z,11.54
2022-10-26T16:48:46.423Z,11.50
2022-10-26T16:51:14.425Z,11.52
2022-10-26T16:53:40.929Z,11.60
2022-10-26T16:56:11.619Z,11.68
2022-10-26T16:58:38.682Z,11.72
2022-10-26T17:01:05.500Z,11.73
2022-10-26T17:03:32.084Z,11.68
2022-10-26T17:05:59.456Z,11.66
2022-10-26T17:08:26.809Z,11.62
2022-10-26T17:10:53.550Z,11.50
2022-10-26T17:13:19.990Z,11.48
2022-10-26T17:15:46.373Z,11.46
2022-10-26T17:18:12.805Z,11.50
2022-10-26T17:20:39.257Z,11.56
2022-10-26T17:23:06.227Z,11.56
2022-10-26T17:25:36.613Z,11.56
2022-10-26T17:28:03.347Z,11.63
2022-10-26T17:30:32.866Z,11.69
2022-10-26T17:33:01.259Z,11.69
2022-10-26T17:35:27.691Z,11.59
2022-10-26T17:37:54.380Z,11.54
2022-10-26T17:40:21.300Z,11.56
2022-10-26T17:42:47.685Z,11.62
2022-10-26T17:45:14.114Z,11.68
2022-10-26T17:47:40.530Z,11.72
2022-10-26T17:50:07.271Z,11.77
2022-10-26T17:52:33.638Z,11.77
2022-10-26T17:55:01.918Z,11.79
2022-10-26T17:57:29.290Z,11.85
2022-10-26T17:59:55.636Z,11.88
2022-10-26T18:02:22.096Z,11.89
2022-10-26T18:04:48.580Z,11.92
2022-10-26T18:07:15.023Z,11.93
2022-10-26T18:09:41.969Z,11.94
2022-10-26T18:12:08.446Z,11.94
2022-10-26T18:14:34.828Z,11.95
2022-10-26T18:17:01.203Z,11.97
2022-10-26T18:19:27.576Z,11.97
2022-10-26T18:21:54.166Z,11.97
2022-10-26T18:24:20.895Z,11.97
2022-10-26T18:26:47.272Z,11.96
2022-10-26T18:29:13.863Z,11.96
2022-10-26T18:31:40.284Z,11.98
2022-10-26T18:34:07.034Z,11.95
2022-10-26T18:36:33.660Z,11.88
2022-10-26T18:39:00.113Z,11.86
2022-10-26T18:41:26.822Z,11.89
2022-10-26T18:43:54.279Z,11.82
2022-10-26T18:46:25.180Z,11.83
2022-10-26T18:48:52.345Z,11.86
2022-10-26T18:51:19.943Z,11.88
2022-10-26T18:53:46.903Z,11.90
2022-10-26T18:56:15.249Z,11.90
2022-10-26T18:58:42.633Z,11.91
2022-10-26T19:01:16.646Z,11.89
2022-10-26T19:03:43.498Z,11.80
2022-10-26T19:06:20.323Z,11.79
2022-10-26T19:08:46.889Z,11.82
2022-10-26T19:11:14.383Z,11.85
2022-10-26T19:13:41.213Z,11.86
2022-10-26T19:16:21.795Z,11.87
2022-10-26T19:18:58.985Z,11.88
2022-10-26T19:21:25.676Z,11.88
2022-10-26T19:23:54.075Z,11.87
2022-10-26T19:26:25.074Z,11.88
2022-10-26T19:28:55.661Z,11.87
2022-10-26T19:31:24.895Z,11.88
2022-10-26T19:33:53.645Z,11.87
2022-10-26T19:36:20.026Z,11.87
2022-10-26T19:38:46.415Z,11.87
2022-10-26T19:41:13.810Z,11.86
2022-10-26T19:43:40.834Z,11.84
2022-10-26T19:46:08.934Z,11.83
2022-10-26T19:48:35.763Z,11.84
2022-10-26T19:51:02.577Z,11.84
2022-10-26T19:53:28.986Z,11.87
2022-10-26T19:55:59.522Z,11.86
2022-10-26T19:58:26.744Z,11.85
2022-10-26T20:00:57.084Z,11.85
2022-10-26T20:03:23.663Z,11.85
2022-10-26T20:05:50.075Z,11.86
2022-10-26T20:08:16.684Z,11.85
2022-10-26T20:10:44.078Z,11.86
2022-10-26T20:13:11.281Z,11.86
2022-10-26T20:15:38.133Z,11.86
2022-10-26T20:18:04.600Z,11.87
2022-10-26T20:20:31.582Z,11.87
2022-10-26T20:22:58.313Z,11.88
2022-10-26T20:25:24.705Z,11.87
2022-10-26T20:27:51.320Z,11.86
2022-10-26T20:30:18.187Z,11.85
2022-10-26T20:32:44.533Z,11.85
2022-10-26T20:35:10.918Z,11.85
2022-10-26T20:37:37.452Z,11.85
2022-10-26T20:40:04.222Z,11.83
2022-10-26T20:42:30.689Z,11.84
2022-10-26T20:45:07.392Z,11.84
2022-10-26T20:47:33.949Z,11.85
2022-10-26T20:50:00.471Z,11.85
2022-10-26T20:52:36.639Z,11.84
2022-10-26T20:55:17.954Z,11.83
2022-10-26T20:57:52.417Z,11.84
2022-10-26T21:00:19.075Z,11.83
2022-10-26T21:02:45.462Z,11.84
2022-10-26T21:05:11.833Z,11.83
2022-10-26T21:07:38.189Z,11.83
2022-10-26T21:10:04.735Z,11.84
2022-10-26T21:12:31.239Z,11.83
2022-10-26T21:14:57.621Z,11.80
2022-10-26T21:17:23.996Z,11.78
2022-10-26T21:19:50.354Z,11.81
2022-10-26T21:22:16.799Z,11.82
2022-10-26T21:24:43.292Z,11.83
2022-10-26T21:27:09.736Z,11.83
2022-10-26T21:29:36.086Z,11.82
2022-10-26T21:32:02.532Z,11.84
2022-10-26T21:34:28.962Z,11.83
2022-10-26T21:36:55.323Z,11.84
2022-10-26T21:39:21.672Z,11.85
2022-10-26T21:41:48.080Z,11.85
2022-10-26T21:44:41.772Z,11.83
2022-10-26T21:47:00.808Z,11.84
2022-10-26T21:49:27.185Z,11.83
2022-10-26T21:51:53.578Z,11.84
2022-10-26T21:54:19.949Z,11.83
2022-10-26T21:56:46.361Z,11.78
2022-10-26T21:59:12.715Z,11.78
2022-10-26T22:01:39.416Z,11.78
2022-10-26T22:04:05.837Z,11.77
2022-10-26T22:06:32.208Z,11.77
2022-10-26T22:08:58.566Z,11.77
2022-10-26T22:11:25.441Z,11.78
2022-10-26T22:13:52.390Z,11.80
2022-10-26T22:16:23.256Z,11.84
2022-10-26T22:18:50.799Z,11.82
2022-10-26T22:21:18.128Z,11.78
2022-10-26T22:23:44.907Z,11.79
2022-10-26T22:26:12.791Z,11.71
2022-10-26T22:28:42.678Z,11.71
2022-10-26T22:31:11.134Z,11.72
2022-10-26T22:33:37.506Z,11.70
2022-10-26T22:36:08.334Z,11.72
2022-10-26T22:38:34.726Z,11.75
2022-10-26T22:41:01.143Z,11.75
2022-10-26T22:43:27.877Z,11.77
2022-10-26T22:46:06.387Z,11.77
2022-10-26T22:48:33.479Z,11.78
2022-10-26T22:51:04.087Z,11.73
2022-10-26T22:53:30.473Z,11.72
2022-10-26T22:55:56.873Z,11.72
2022-10-26T22:58:23.243Z,11.65
2022-10-26T23:00:49.788Z,11.50
2022-10-26T23:03:16.158Z,11.50
2022-10-26T23:05:46.645Z,11.46
2022-10-26T23:08:13.054Z,11.42
2022-10-26T23:10:39.425Z,11.42
2022-10-26T23:13:05.899Z,11.43
2022-10-26T23:15:32.288Z,11.41
2022-10-26T23:17:58.673Z,11.43
2022-10-26T23:20:25.119Z,11.41
2022-10-26T23:22:51.648Z,11.46
2022-10-26T23:25:18.335Z,11.53
2022-10-26T23:27:44.696Z,11.55
2022-10-26T23:30:11.395Z,11.52
2022-10-26T23:32:37.765Z,11.57
2022-10-26T23:35:04.288Z,11.58
2022-10-26T23:37:30.666Z,11.57
2022-10-26T23:39:57.070Z,11.57
2022-10-26T23:42:23.442Z,11.53
2022-10-26T23:44:49.821Z,11.52
2022-10-26T23:47:16.202Z,11.52
2022-10-26T23:49:42.642Z,11.48
2022-10-26T23:52:09.000Z,11.49
2022-10-26T23:54:35.354Z,11.54
2022-10-26T23:57:01.802Z,11.54
2022-10-26T23:59:28.160Z,11.50
